createdAt,value
2019-01-10T00:04:14.652Z,100492.81
2019-01-10T00:09:20.585Z,100490.07
2019-01-10T00:14:22.682Z,100507.77
2019-01-10T00:19:24.574Z,100511.14
2019-01-10T00:24:26.553Z,100521.11
2019-01-10T00:29:28.472Z,100524.15
2019-01-10T00:34:31.771Z,100533.30
2019-01-10T00:39:34.063Z,100537.12
2019-01-10T00:44:36.240Z,100544.94
2019-01-10T00:49:38.129Z,100551.80
2019-01-10T00:54:40.012Z,100552.03
2019-01-10T00:59:41.949Z,100554.00
2019-01-10T01:04:43.938Z,100563.33
2019-01-10T01:09:45.933Z,100569.61
2019-01-10T01:14:48.207Z,100577.80
2019-01-10T01:19:50.098Z,100585.92
2019-01-10T01:24:51.982Z,100593.48
2019-01-10T01:29:53.902Z,100602.31
2019-01-10T01:34:55.798Z,100607.76
2019-01-10T01:39:58.037Z,100620.85
2019-01-10T01:45:00.223Z,100627.29
2019-01-10T01:50:03.013Z,100633.00
2019-01-10T01:55:05.460Z,100638.73
2019-01-10T02:00:13.343Z,100650.86
2019-01-10T02:05:15.854Z,100655.52
2019-01-10T02:10:24.453Z,100664.59
2019-01-10T02:15:27.557Z,100669.37
2019-01-10T02:20:29.768Z,100658.13
2019-01-10T02:25:31.697Z,100680.73
2019-01-10T02:30:41.908Z,100682.47
2019-01-10T02:35:37.519Z,100691.17
2019-01-10T02:40:39.459Z,100697.23
2019-01-10T02:45:41.641Z,100696.27
2019-01-10T02:50:43.564Z,100701.64
2019-01-10T02:55:45.466Z,100711.98
2019-01-10T03:00:47.517Z,100710.78
2019-01-10T03:05:51.459Z,100719.88
2019-01-10T03:10:53.401Z,100723.00
2019-01-10T03:15:55.328Z,100724.41
2019-01-10T03:20:57.335Z,100732.85
2019-01-10T03:25:59.251Z,100729.08
2019-01-10T03:31:02.567Z,100727.27
2019-01-10T03:36:04.883Z,100729.35
2019-01-10T03:41:06.985Z,100731.27
2019-01-10T03:46:08.965Z,100741.95
2019-01-10T03:51:10.867Z,100733.09
2019-01-10T03:56:12.864Z,100735.24
2019-01-10T04:01:15.186Z,100747.16
2019-01-10T04:06:17.072Z,100745.48
2019-01-10T04:11:18.976Z,100755.48
2019-01-10T04:16:20.927Z,100753.13
2019-01-10T04:21:22.840Z,100758.98
2019-01-10T04:26:24.749Z,100759.75
2019-01-10T04:31:26.661Z,100776.65
2019-01-10T04:36:30.208Z,100766.03
2019-01-10T04:41:32.392Z,100789.40
2019-01-10T04:46:34.334Z,100784.20
2019-01-10T04:51:36.344Z,100787.05
2019-01-10T04:56:38.259Z,100801.41
2019-01-10T05:01:40.304Z,100799.05
2019-01-10T05:06:42.208Z,100799.34
2019-01-10T05:11:44.130Z,100806.22
2019-01-10T05:16:46.089Z,100798.09
2019-01-10T05:21:47.973Z,100810.00
2019-01-10T05:26:50.051Z,100811.62
2019-01-10T05:31:51.965Z,100815.77
2019-01-10T05:36:53.877Z,100829.18
2019-01-10T05:41:55.842Z,100832.48
2019-01-10T05:46:57.753Z,100838.33
2019-01-10T05:51:59.669Z,100845.30
2019-01-10T05:57:01.691Z,100855.40
2019-01-10T06:02:03.817Z,100864.27
2019-01-10T06:07:05.728Z,100863.72
2019-01-10T06:12:07.764Z,100876.29
2019-01-10T06:17:09.662Z,100881.62
2019-01-10T06:22:11.641Z,100893.98
2019-01-10T06:27:13.566Z,100899.27
2019-01-10T06:32:15.488Z,100908.23
2019-01-10T06:37:17.416Z,100917.77
2019-01-10T06:42:19.488Z,100921.64
2019-01-10T06:47:21.373Z,100931.69
2019-01-10T06:52:23.432Z,100935.02
2019-01-10T06:57:25.354Z,100947.33
2019-01-10T07:02:27.261Z,100951.97
2019-01-10T07:07:29.164Z,100962.26
2019-01-10T07:12:31.241Z,100962.22
2019-01-10T07:17:34.183Z,100977.95
2019-01-10T07:22:42.238Z,100980.78
2019-01-10T07:27:44.287Z,100987.09
2019-01-10T07:32:46.206Z,100986.12
2019-01-10T07:37:50.322Z,101002.48
2019-01-10T07:42:53.390Z,101007.03
2019-01-10T07:47:55.416Z,101002.61
2019-01-10T07:52:57.549Z,100997.32
2019-01-10T07:57:59.680Z,101010.05
2019-01-10T08:03:01.787Z,101015.23
2019-01-10T08:08:05.061Z,101026.11
2019-01-10T08:13:07.287Z,101028.22
2019-01-10T08:18:09.283Z,101034.78
2019-01-10T08:23:11.196Z,101047.30
2019-01-10T08:28:13.217Z,101055.17
2019-01-10T08:33:15.217Z,101057.44
2019-01-10T08:38:17.430Z,101060.45
2019-01-10T08:43:19.659Z,101068.56
2019-01-10T08:48:21.850Z,101068.67
2019-01-10T08:53:25.971Z,101071.86
2019-01-10T08:58:28.217Z,101080.67
2019-01-10T09:03:30.513Z,101090.23
2019-01-10T09:08:32.758Z,101098.48
2019-01-10T09:13:34.918Z,101097.53
2019-01-10T09:18:37.210Z,101107.06
2019-01-10T09:23:39.339Z,101107.66
2019-01-10T09:28:41.883Z,101101.16
2019-01-10T09:33:45.658Z,101113.87
2019-01-10T09:38:47.907Z,101124.08
2019-01-10T09:43:50.281Z,101136.91
2019-01-10T09:48:52.528Z,101145.14
2019-01-10T09:53:54.909Z,101149.08
2019-01-10T09:58:57.020Z,101155.08
2019-01-10T10:03:59.377Z,101160.54
2019-01-10T10:09:05.264Z,101163.90
2019-01-10T10:14:07.728Z,101164.09
2019-01-10T10:19:10.081Z,101169.88
2019-01-10T10:24:12.467Z,101167.11
2019-01-10T10:29:14.853Z,101166.36
2019-01-10T10:34:17.070Z,101168.09
2019-01-10T10:39:19.479Z,101166.52
2019-01-10T10:44:21.828Z,101165.83
2019-01-10T10:49:23.966Z,101168.77
2019-01-10T10:54:26.459Z,101165.92
2019-01-10T10:59:28.612Z,101163.23
2019-01-10T11:04:31.597Z,101166.41
2019-01-10T11:09:34.018Z,101155.69
2019-01-10T11:14:36.654Z,101144.83
2019-01-10T11:19:38.989Z,101148.59
2019-01-10T11:24:42.366Z,101154.81
2019-01-10T11:29:45.520Z,101152.94
2019-01-10T11:34:47.844Z,101154.97
2019-01-10T11:39:50.349Z,101146.92
2019-01-10T11:44:52.954Z,101146.32
2019-01-10T11:49:55.356Z,101138.52
2019-01-10T11:54:57.766Z,101140.14
2019-01-10T12:00:00.198Z,101137.37
2019-01-10T12:05:06.122Z,101133.88
2019-01-10T12:10:09.324Z,101129.55
2019-01-10T12:15:12.126Z,101129.48
2019-01-10T12:20:16.274Z,101129.31
2019-01-10T12:25:19.024Z,101133.72
2019-01-10T12:30:24.212Z,101132.03
2019-01-10T12:35:26.718Z,101129.20
2019-01-10T12:40:28.610Z,101124.46
2019-01-10T12:45:32.055Z,101124.46
2019-01-10T12:50:34.075Z,101128.14
2019-01-10T12:55:36.597Z,101135.23
2019-01-10T13:00:38.538Z,101136.30
2019-01-10T13:05:40.536Z,101138.00
2019-01-10T13:10:42.628Z,101132.22
2019-01-10T13:15:44.681Z,101146.13
2019-01-10T13:20:46.590Z,101149.72
2019-01-10T13:25:48.540Z,101133.83
2019-01-10T13:30:51.554Z,101147.64
2019-01-10T13:35:53.546Z,101150.77
2019-01-10T13:40:55.464Z,101150.64
2019-01-10T13:45:57.521Z,101152.91
2019-01-10T13:50:59.528Z,101153.44
2019-01-10T13:56:03.020Z,101156.38
2019-01-10T14:01:05.426Z,101157.62
2019-01-10T14:06:07.431Z,101161.25
2019-01-10T14:11:09.433Z,101157.27
2019-01-10T14:16:11.590Z,101164.25
2019-01-10T14:21:13.709Z,101169.69
2019-01-10T14:26:15.876Z,101168.13
2019-01-10T14:31:17.936Z,101173.39
2019-01-10T14:36:19.849Z,101177.91
2019-01-10T14:41:22.281Z,101186.19
2019-01-10T14:46:25.606Z,101190.81
2019-01-10T14:51:27.922Z,101194.54
2019-01-10T14:56:29.997Z,101190.43
2019-01-10T15:01:32.112Z,101197.21
2019-01-10T15:06:34.057Z,101201.45
2019-01-10T15:11:37.416Z,101202.01
2019-01-10T15:16:39.288Z,101200.00
2019-01-10T15:21:41.480Z,101210.68
2019-01-10T15:26:43.561Z,101210.80
2019-01-10T15:31:45.492Z,101206.83
2019-01-10T15:36:47.433Z,101206.28
2019-01-10T15:41:50.860Z,101210.88
2019-01-10T15:46:52.772Z,101218.99
2019-01-10T15:51:54.700Z,101218.71
2019-01-10T15:57:00.708Z,101218.78
2019-01-10T16:02:00.481Z,101226.39
2019-01-10T16:07:02.514Z,101230.13
2019-01-10T16:12:04.516Z,101239.89
2019-01-10T16:17:06.419Z,101247.77
2019-01-10T16:22:08.651Z,101250.47
2019-01-10T16:27:10.582Z,101246.13
2019-01-10T16:32:12.541Z,101245.55
2019-01-10T16:37:14.573Z,101247.29
2019-01-10T16:42:16.585Z,101246.60
2019-01-10T16:47:18.593Z,101248.88
2019-01-10T16:52:20.575Z,101243.74
2019-01-10T16:57:22.617Z,101246.16
2019-01-10T17:02:24.600Z,101244.91
2019-01-10T17:07:27.809Z,101248.58
2019-01-10T17:12:29.700Z,101245.69
2019-01-10T17:17:37.563Z,101252.36
2019-01-10T17:22:35.464Z,101251.92
2019-01-10T17:27:37.604Z,101251.83
2019-01-10T17:32:39.704Z,101244.75
2019-01-10T17:37:41.845Z,101252.52
2019-01-10T17:42:44.213Z,101246.82
2019-01-10T17:47:46.953Z,101246.45
2019-01-10T17:52:48.885Z,101251.89
2019-01-10T17:57:51.023Z,101241.62
2019-01-10T18:02:52.978Z,101234.59
2019-01-10T18:07:56.113Z,101236.13
2019-01-10T18:12:58.022Z,101232.32
2019-01-10T18:17:59.911Z,101237.83
2019-01-10T18:23:02.232Z,101246.39
2019-01-10T18:28:04.448Z,101238.86
2019-01-10T18:33:06.392Z,101246.29
2019-01-10T18:38:08.501Z,101252.05
2019-01-10T18:43:10.534Z,101264.50
2019-01-10T18:48:12.480Z,101269.01
2019-01-10T18:53:14.467Z,101269.02
2019-01-10T18:58:16.473Z,101268.38
2019-01-10T19:03:18.404Z,101266.75
2019-01-10T19:08:20.404Z,101265.36
2019-01-10T19:13:22.317Z,101267.78
2019-01-10T19:18:24.257Z,101273.98
2019-01-10T19:23:26.158Z,101278.58
2019-01-10T19:28:28.211Z,101273.73
2019-01-10T19:33:30.242Z,101269.07
2019-01-10T19:38:32.353Z,101280.84
2019-01-10T19:43:34.332Z,101287.03
2019-01-10T19:48:36.361Z,101284.02
2019-01-10T19:54:12.204Z,101284.70
2019-01-10T19:59:14.165Z,101280.65
2019-01-10T20:04:16.106Z,101268.85
2019-01-10T20:09:18.104Z,101275.37
2019-01-10T20:14:20.132Z,101275.62
2019-01-10T20:19:22.028Z,101263.25
2019-01-10T20:24:23.941Z,101269.07
2019-01-10T20:29:25.877Z,101279.42
2019-01-10T20:34:27.793Z,101277.16
2019-01-10T20:39:29.668Z,101264.35
2019-01-10T20:44:31.618Z,101276.94
2019-01-10T20:49:33.508Z,101285.88
2019-01-10T20:54:35.633Z,101279.36
2019-01-10T20:59:37.647Z,101265.29
2019-01-10T21:04:39.648Z,101266.65
2019-01-10T21:09:41.881Z,101268.29
2019-01-10T21:14:43.780Z,101268.54
2019-01-10T21:19:45.777Z,101268.38
2019-01-10T21:24:47.748Z,101271.66
2019-01-10T21:29:50.047Z,101261.46
2019-01-10T21:34:52.117Z,101263.69
2019-01-10T21:39:54.013Z,101259.66
2019-01-10T21:44:56.117Z,101263.41
2019-01-10T21:49:58.138Z,101260.04
2019-01-10T21:55:00.020Z,101263.47
2019-01-10T22:00:02.059Z,101260.38
2019-01-10T22:05:05.368Z,101268.84
2019-01-10T22:10:08.644Z,101259.91
2019-01-10T22:15:11.197Z,101263.31
2019-01-10T22:20:13.817Z,101256.11
2019-01-10T22:25:15.945Z,101257.81
2019-01-10T22:30:20.007Z,101262.56
2019-01-10T22:35:22.181Z,101255.54
2019-01-10T22:40:24.209Z,101254.69
2019-01-10T22:45:26.185Z,101255.86
2019-01-10T22:50:30.735Z,101263.38
2019-01-10T22:55:32.820Z,101248.88
2019-01-10T23:01:08.991Z,101250.66
2019-01-10T23:06:11.070Z,101250.09
2019-01-10T23:11:18.453Z,101248.52
2019-01-10T23:16:20.666Z,101243.27
2019-01-10T23:21:22.792Z,101244.50
2019-01-10T23:26:24.693Z,101241.79
2019-01-10T23:31:26.628Z,101238.20
2019-01-10T23:36:28.911Z,101230.20
2019-01-10T23:41:30.881Z,101222.97
2019-01-10T23:46:32.891Z,101228.52
2019-01-10T23:51:34.999Z,101225.27
2019-01-10T23:56:37.103Z,101219.91
